Time;durP1;ratioP1;P1;durP2;ratioP2;P2;SDS_P1;SDS_P2;PMS_P1;PMS_P2;Temp;Humidity;BMP_temperature;BMP_pressure;BME280_temperature;BME280_humidity;BME280_pressure;Samples;Min_cycle;Max_cycle;Signal;HPM_P1;HPM_P2
2020/12/27 00:00:31;;;;;;;3.27;2.43;;;;;;;4.66;100.00;99360.38;5037944;28;20534;-31
2020/12/27 00:03:17;;;;;;;2.70;2.50;;;;;;;4.43;100.00;99352.69;5037787;28;20242;-31
2020/12/27 00:06:03;;;;;;;2.50;2.40;;;;;;;4.56;100.00;99338.19;5037646;28;20219;-31
2020/12/27 00:08:49;;;;;;;2.60;2.33;;;;;;;4.55;100.00;99333.94;5037923;28;20199;-31
2020/12/27 00:11:36;;;;;;;2.40;2.30;;;;;;;4.50;100.00;99318.56;5040019;28;20204;-31
2020/12/27 00:14:23;;;;;;;3.77;2.60;;;;;;;4.44;100.00;99321.09;5041408;28;20212;-31
2020/12/27 00:17:12;;;;;;;4.43;2.57;;;;;;;4.39;100.00;99311.75;5038103;28;20208;-31
2020/12/27 00:20:04;;;;;;;3.00;2.60;;;;;;;4.44;100.00;99299.78;5037780;28;20293;-31
2020/12/27 00:22:50;;;;;;;2.63;2.43;;;;;;;4.48;100.00;99286.97;5037244;28;20201;-31
2020/12/27 00:25:40;;;;;;;2.83;2.53;;;;;;;4.45;100.00;99274.16;5037367;28;20240;-31
2020/12/27 00:28:27;;;;;;;2.37;2.20;;;;;;;4.50;100.00;99267.34;5038036;28;20350;-31
2020/12/27 00:31:17;;;;;;;2.53;2.37;;;;;;;4.52;100.00;99263.94;5037715;28;20207;-31
2020/12/27 00:34:04;;;;;;;3.57;2.40;;;;;;;4.40;100.00;99251.97;5043097;28;20204;-31
2020/12/27 00:36:57;;;;;;;2.43;2.23;;;;;;;4.47;100.00;99249.41;5042452;28;20482;-31
2020/12/27 00:39:43;;;;;;;3.90;2.40;;;;;;;4.28;100.00;99262.22;5043665;28;20204;-31
2020/12/27 00:42:29;;;;;;;4.27;2.33;;;;;;;4.29;100.00;99246.88;5041749;28;20341;-31
2020/12/27 00:45:16;;;;;;;2.10;2.00;;;;;;;4.41;100.00;99235.75;5040715;28;20267;-31
2020/12/27 00:48:02;;;;;;;3.10;2.40;;;;;;;4.30;100.00;99229.81;5041389;28;20633;-31
2020/12/27 00:50:49;;;;;;;2.30;2.10;;;;;;;4.35;100.00;99223.84;5041543;28;20202;-31
2020/12/27 00:53:37;;;;;;;2.37;2.17;;;;;;;4.32;100.00;99220.44;5041429;28;20247;-31
2020/12/27 00:56:23;;;;;;;3.83;2.97;;;;;;;4.55;100.00;99210.16;5042520;28;20351;-31
2020/12/27 00:59:11;;;;;;;2.83;2.43;;;;;;;4.27;100.00;99192.25;5040968;28;20201;-31
2020/12/27 01:01:57;;;;;;;2.43;2.10;;;;;;;4.34;100.00;99173.50;5044810;28;20193;-31
2020/12/27 01:04:48;;;;;;;3.13;2.57;;;;;;;4.41;100.00;99179.44;5040983;28;20199;-31
2020/12/27 01:07:35;;;;;;;2.47;2.27;;;;;;;4.25;100.00;99158.13;5040782;28;20231;-31
2020/12/27 01:10:21;;;;;;;2.47;2.27;;;;;;;4.35;100.00;99162.41;5041509;28;20211;-30
2020/12/27 01:13:08;;;;;;;2.30;2.10;;;;;;;4.41;100.00;99161.53;5043079;28;20188;-31
2020/12/27 01:15:57;;;;;;;2.27;2.17;;;;;;;4.40;100.00;99163.22;5040909;28;20208;-31
2020/12/27 01:18:43;;;;;;;2.20;2.00;;;;;;;4.11;100.00;99147.94;5040748;28;20295;-30
2020/12/27 01:21:32;;;;;;;2.57;2.20;;;;;;;4.28;100.00;99141.94;5041537;28;20450;-31
2020/12/27 01:24:19;;;;;;;2.77;2.57;;;;;;;4.13;100.00;99138.56;5044942;28;20513;-31
2020/12/27 01:27:05;;;;;;;2.53;2.40;;;;;;;4.19;100.00;99130.03;5040097;28;20312;-30
2020/12/27 01:29:51;;;;;;;2.50;2.30;;;;;;;4.38;100.00;99126.56;5046782;28;20203;-30
2020/12/27 01:32:38;;;;;;;2.60;2.40;;;;;;;4.22;100.00;99124.00;5044015;28;20300;-30
2020/12/27 01:35:24;;;;;;;2.33;2.23;;;;;;;4.42;100.00;99114.59;5040220;28;20597;-30
2020/12/27 01:38:10;;;;;;;2.20;2.10;;;;;;;4.34;100.00;99101.81;5040360;28;20311;-30
2020/12/27 01:41:06;;;;;;;2.43;2.00;;;;;;;4.37;100.00;99094.13;5040301;28;20541;-30
2020/12/27 01:44:03;;;;;;;3.73;1.90;;;;;;;4.30;100.00;99083.91;5041316;28;20298;-30
2020/12/27 01:46:50;;;;;;;2.30;2.10;;;;;;;4.45;100.00;99083.84;5039938;28;20278;-31
2020/12/27 01:49:36;;;;;;;3.17;1.90;;;;;;;4.29;100.00;99071.97;5041711;28;20665;-31
2020/12/27 01:52:22;;;;;;;2.23;2.13;;;;;;;4.41;100.00;99056.56;5039627;28;20261;-31
2020/12/27 01:55:10;;;;;;;1.87;1.73;;;;;;;4.32;100.00;99046.38;5039620;28;20204;-31
2020/12/27 01:58:20;;;;;;;2.17;1.80;;;;;;;4.34;100.00;99026.75;5039964;28;20204;-31
2020/12/27 02:01:06;;;;;;;2.00;1.70;;;;;;;4.15;100.00;99023.41;5041147;28;20261;-31
2020/12/27 02:03:52;;;;;;;1.63;1.53;;;;;;;4.26;100.00;99020.78;5045495;28;20540;-31
2020/12/27 02:06:41;;;;;;;3.00;2.00;;;;;;;4.25;100.00;99002.00;5042299;28;20234;-31
2020/12/27 02:09:27;;;;;;;2.20;2.00;;;;;;;4.15;100.00;99010.59;5039291;28;20342;-31
2020/12/27 02:12:13;;;;;;;2.83;1.73;;;;;;;4.19;100.00;98991.81;5039592;28;20262;-30
2020/12/27 02:15:01;;;;;;;1.80;1.70;;;;;;;4.18;100.00;98994.38;5039288;28;20199;-31
2020/12/27 02:17:48;;;;;;;3.57;2.13;;;;;;;4.21;100.00;98972.16;5039304;28;20216;-31
2020/12/27 02:20:34;;;;;;;3.10;1.80;;;;;;;4.28;100.00;98935.47;5040356;28;20332;-31
2020/12/27 02:23:21;;;;;;;4.17;1.70;;;;;;;4.23;100.00;98939.75;5043419;28;20200;-31
2020/12/27 02:26:11;;;;;;;1.73;1.63;;;;;;;4.23;100.00;98924.41;5000524;28;20514;-31
2020/12/27 02:28:58;;;;;;;1.40;1.30;;;;;;;4.10;100.00;98904.84;5000066;28;20201;-31
2020/12/27 02:31:44;;;;;;;1.80;1.70;;;;;;;4.23;100.00;98890.28;4999484;28;20214;-31
2020/12/27 02:34:30;;;;;;;1.87;1.77;;;;;;;4.05;100.00;98881.84;4999666;28;20200;-31
2020/12/27 02:37:16;;;;;;;1.80;1.70;;;;;;;4.28;100.00;98870.63;4999705;28;20200;-31
2020/12/27 02:40:03;;;;;;;2.17;1.70;;;;;;;4.23;100.00;98859.56;5000435;28;20204;-31
2020/12/27 02:42:50;;;;;;;1.70;1.60;;;;;;;4.17;100.00;98863.03;5000949;28;20253;-31
2020/12/27 02:45:36;;;;;;;2.43;1.70;;;;;;;4.18;100.00;98846.81;5000873;28;20486;-31
2020/12/27 02:48:22;;;;;;;1.77;1.67;;;;;;;4.21;100.00;98846.78;4999435;28;20215;-31
2020/12/27 02:51:08;;;;;;;2.73;1.70;;;;;;;4.20;100.00;98827.16;4999531;28;20542;-31
2020/12/27 02:53:55;;;;;;;1.77;1.67;;;;;;;4.15;100.00;98832.34;4999360;28;20217;-31
2020/12/27 02:56:42;;;;;;;1.60;1.50;;;;;;;4.18;100.00;98815.25;4999341;28;20201;-30
2020/12/27 02:59:29;;;;;;;2.37;1.67;;;;;;;4.27;100.00;98803.25;4999319;28;20608;-30
2020/12/27 03:02:15;;;;;;;1.20;1.10;;;;;;;4.24;100.00;98812.63;4999935;28;20269;-30
2020/12/27 03:05:01;;;;;;;1.57;1.57;;;;;;;4.39;100.00;98798.03;5005343;28;20208;-30
2020/12/27 03:07:47;;;;;;;1.40;1.30;;;;;;;4.31;100.00;98799.81;4998895;28;20243;-29
2020/12/27 03:10:32;;;;;;;1.40;1.40;;;;;;;4.36;100.00;98782.72;4999265;28;20608;-30
2020/12/27 03:13:18;;;;;;;3.03;1.70;;;;;;;4.42;100.00;98769.84;4999301;28;20268;-30
2020/12/27 03:16:06;;;;;;;1.40;1.30;;;;;;;4.47;100.00;98772.38;5000961;28;20198;-33
2020/12/27 03:18:52;;;;;;;1.30;1.20;;;;;;;4.46;100.00;98752.75;5001063;28;20607;-31
2020/12/27 03:21:38;;;;;;;1.50;1.40;;;;;;;4.43;100.00;98756.19;4999622;28;20202;-31
2020/12/27 03:24:24;;;;;;;2.80;1.37;;;;;;;4.45;100.00;98741.66;5005965;28;20241;-31
2020/12/27 03:27:10;;;;;;;1.47;1.37;;;;;;;4.50;100.00;98733.94;5018446;28;20276;-31
2020/12/27 03:29:56;;;;;;;1.40;1.30;;;;;;;4.64;100.00;98718.44;5018337;28;20206;-31
2020/12/27 03:32:43;;;;;;;1.33;1.23;;;;;;;4.58;100.00;98704.00;5019619;28;20286;-31
2020/12/27 03:35:30;;;;;;;1.43;1.30;;;;;;;4.52;100.00;98706.63;5019080;28;20348;-31
2020/12/27 03:38:17;;;;;;;1.13;1.13;;;;;;;4.61;100.00;98701.38;5018451;28;20202;-31
2020/12/27 03:41:04;;;;;;;1.30;1.20;;;;;;;4.61;100.00;98692.84;5018209;28;20293;-31
2020/12/27 03:43:50;;;;;;;1.00;0.97;;;;;;;4.54;100.00;98681.00;5019175;28;20201;-31
2020/12/27 03:46:36;;;;;;;1.40;1.20;;;;;;;4.58;100.00;98667.31;5018298;28;20716;-31
2020/12/27 03:49:23;;;;;;;1.60;1.03;;;;;;;4.65;100.00;98658.66;5018678;28;20289;-31
2020/12/27 03:52:10;;;;;;;1.87;1.00;;;;;;;4.68;100.00;98643.28;5018363;28;20198;-31
2020/12/27 03:54:55;;;;;;;1.90;1.10;;;;;;;4.66;100.00;98648.41;5029864;28;20227;-31
2020/12/27 03:57:42;;;;;;;0.83;0.83;;;;;;;4.70;100.00;98657.75;5038385;28;20690;-31
2020/12/27 04:00:30;;;;;;;1.03;1.00;;;;;;;4.84;100.00;98642.22;5039160;28;20209;-31
2020/12/27 04:03:17;;;;;;;1.07;1.03;;;;;;;4.81;100.00;98621.75;5060306;28;20196;-31
2020/12/27 04:06:04;;;;;;;0.87;0.87;;;;;;;4.77;100.00;98591.97;5059495;28;20228;-31
2020/12/27 04:08:50;;;;;;;0.97;0.90;;;;;;;4.87;100.00;98600.34;5057901;28;20200;-32
2020/12/27 04:11:36;;;;;;;0.63;0.60;;;;;;;4.97;100.00;98582.31;5061629;28;20200;-31
2020/12/27 04:14:22;;;;;;;2.70;1.20;;;;;;;5.02;100.00;98585.63;5062466;28;20267;-31
2020/12/27 04:17:08;;;;;;;1.80;0.70;;;;;;;5.02;100.00;98572.81;5061709;28;20197;-31
2020/12/27 04:19:55;;;;;;;1.77;0.67;;;;;;;5.03;100.00;98577.06;5063305;28;20203;-31
2020/12/27 04:22:43;;;;;;;0.80;0.80;;;;;;;5.10;100.00;98553.06;5061881;28;20259;-32
2020/12/27 04:25:30;;;;;;;0.63;0.63;;;;;;;5.03;100.00;98546.31;5066379;28;20534;-31
2020/12/27 04:28:16;;;;;;;0.80;0.80;;;;;;;5.18;100.00;98535.00;5062571;28;20812;-31
2020/12/27 04:31:02;;;;;;;1.30;0.90;;;;;;;5.18;100.00;98517.06;5061746;28;20295;-32
2020/12/27 04:33:48;;;;;;;0.83;0.83;;;;;;;5.11;100.00;98518.88;5061848;28;20498;-31
2020/12/27 04:36:34;;;;;;;0.83;0.63;;;;;;;5.06;100.00;98512.13;5061545;28;20586;-31
2020/12/27 04:39:21;;;;;;;1.07;0.90;;;;;;;5.14;100.00;98512.88;5061015;28;20193;-31
2020/12/27 04:42:09;;;;;;;1.43;1.00;;;;;;;4.96;100.00;98498.63;5061901;28;20286;-31
2020/12/27 04:44:56;;;;;;;1.03;1.03;;;;;;;4.99;100.00;98508.81;5061952;28;20323;-31
2020/12/27 04:47:43;;;;;;;1.17;1.07;;;;;;;5.05;100.00;98466.88;5061267;28;20228;-32
2020/12/27 04:50:30;;;;;;;11.70;1.10;;;;;;;5.05;100.00;98462.59;5062247;28;20665;-31
2020/12/27 04:53:16;;;;;;;0.70;0.70;;;;;;;5.02;100.00;98433.59;5065631;28;20197;-31
2020/12/27 04:56:05;;;;;;;0.80;0.80;;;;;;;4.92;100.00;98438.03;5061399;28;20221;-31
2020/12/27 04:58:52;;;;;;;0.90;0.90;;;;;;;5.07;100.00;98437.78;5063796;28;20200;-31
2020/12/27 05:01:39;;;;;;;2.37;0.97;;;;;;;5.05;100.00;98419.03;5061032;28;20208;-31
2020/12/27 05:04:29;;;;;;;1.10;1.10;;;;;;;4.99;100.00;98405.50;5061289;28;20203;-30
2020/12/27 05:07:19;;;;;;;1.13;1.07;;;;;;;5.11;100.00;98400.16;5063975;28;20355;-30
2020/12/27 05:10:05;;;;;;;0.93;0.93;;;;;;;4.99;100.00;98401.22;5061094;28;20479;-31
2020/12/27 05:12:54;;;;;;;1.67;1.13;;;;;;;5.08;100.00;98395.06;5061718;28;20204;-31
2020/12/27 05:15:41;;;;;;;1.30;1.20;;;;;;;5.07;100.00;98362.63;5063798;28;20196;-31
2020/12/27 05:18:27;;;;;;;1.00;0.97;;;;;;;4.97;100.00;98379.06;5060427;28;20277;-31
2020/12/27 05:21:13;;;;;;;1.20;1.20;;;;;;;5.18;100.00;98378.69;5060273;28;20251;-31
2020/12/27 05:24:00;;;;;;;1.37;1.27;;;;;;;5.02;100.00;98352.47;5060281;28;20386;-30
2020/12/27 05:26:47;;;;;;;1.77;1.13;;;;;;;4.99;100.00;98337.16;5059757;28;20224;-30
2020/12/27 05:29:37;;;;;;;1.20;1.20;;;;;;;4.99;100.00;98337.16;5066315;28;20201;-31
2020/12/27 05:32:23;;;;;;;1.47;1.30;;;;;;;4.97;100.00;98326.09;5060568;28;20281;-31
2020/12/27 05:35:12;;;;;;;0.93;0.93;;;;;;;5.04;100.00;98314.84;5060423;28;20196;-31
2020/12/27 05:38:00;;;;;;;1.00;1.00;;;;;;;5.13;100.00;98312.13;5063123;28;20244;-31
2020/12/27 05:40:46;;;;;;;0.80;0.80;;;;;;;5.09;100.00;98305.38;5060887;28;20209;-30
2020/12/27 05:43:38;;;;;;;1.00;1.00;;;;;;;5.08;100.00;98295.13;5060437;28;20541;-30
2020/12/27 05:46:24;;;;;;;1.03;0.90;;;;;;;5.07;100.00;98286.59;5061792;28;20220;-30
2020/12/27 05:49:11;;;;;;;1.00;1.00;;;;;;;5.16;100.00;98275.34;5060506;28;20196;-31
2020/12/27 05:51:59;;;;;;;0.80;0.80;;;;;;;5.06;100.00;98276.38;5060420;28;20200;-30
2020/12/27 05:54:47;;;;;;;1.40;1.10;;;;;;;5.18;100.00;98276.16;5062623;28;20255;-30
2020/12/27 05:57:34;;;;;;;3.07;1.20;;;;;;;5.07;100.00;98271.25;5060932;28;20197;-30
2020/12/27 06:00:22;;;;;;;1.20;1.10;;;;;;;5.25;100.00;98259.78;5061892;28;20219;-30
2020/12/27 06:03:18;;;;;;;1.13;1.13;;;;;;;5.26;100.00;98264.03;5060486;28;20486;-31
2020/12/27 06:06:11;;;;;;;1.67;1.10;;;;;;;5.18;100.00;98251.38;5060699;28;20201;-29
2020/12/27 06:09:09;;;;;;;1.30;1.20;;;;;;;5.29;100.00;98248.59;5059904;28;20205;-30
2020/12/27 06:12:04;;;;;;;0.80;0.80;;;;;;;5.35;100.00;98233.09;5060707;28;20695;-30
2020/12/27 06:15:09;;;;;;;0.90;0.90;;;;;;;5.35;100.00;98220.28;5060145;28;20204;-30
2020/12/27 06:18:08;;;;;;;0.87;0.87;;;;;;;5.47;100.00;98214.03;5060972;28;20215;-30
2020/12/27 06:21:08;;;;;;;1.20;1.10;;;;;;;5.52;100.00;98209.66;5060980;28;20197;-30
2020/12/27 06:23:57;;;;;;;0.90;0.90;;;;;;;5.42;100.00;98185.09;5070690;28;20200;-31
2020/12/27 06:26:43;;;;;;;1.53;1.20;;;;;;;5.47;100.00;98186.69;5044985;28;20237;-30
2020/12/27 06:29:34;;;;;;;1.27;1.03;;;;;;;5.47;100.00;98165.31;5019923;28;20717;-30
2020/12/27 06:32:24;;;;;;;1.03;0.80;;;;;;;5.58;100.00;98167.66;5021175;28;20604;-30
2020/12/27 06:35:12;;;;;;;1.20;1.10;;;;;;;5.45;100.00;98165.34;5019809;28;20345;-30
2020/12/27 06:37:59;;;;;;;0.90;0.90;;;;;;;5.32;100.00;98165.66;5020087;28;20226;-30
2020/12/27 06:40:47;;;;;;;1.00;1.00;;;;;;;5.45;100.00;98151.69;5019820;28;20607;-31
2020/12/27 06:43:40;;;;;;;0.83;0.83;;;;;;;5.61;100.00;98137.63;5019783;28;20297;-31
2020/12/27 06:46:28;;;;;;;1.67;1.10;;;;;;;5.40;100.00;98150.94;5020897;28;20229;-31
2020/12/27 06:49:15;;;;;;;1.70;0.90;;;;;;;5.40;100.00;98138.97;5023163;28;20273;-31
2020/12/27 06:52:19;;;;;;;1.03;0.70;;;;;;;5.41;100.00;98121.88;5019687;28;20210;-31
2020/12/27 06:55:06;;;;;;;0.83;0.83;;;;;;;5.43;100.00;98120.13;5020598;28;20202;-31
2020/12/27 06:57:52;;;;;;;1.20;1.10;;;;;;;5.42;100.00;98103.03;5019937;28;20644;-30
2020/12/27 07:00:39;;;;;;;1.70;0.90;;;;;;;5.29;100.00;98099.09;5020106;28;20197;-30
2020/12/27 07:03:25;;;;;;;1.20;0.93;;;;;;;5.38;100.00;98081.78;5019175;28;20202;-31
2020/12/27 07:06:22;;;;;;;1.20;1.10;;;;;;;5.41;100.00;98080.84;5021328;28;20488;-31
2020/12/27 07:09:22;;;;;;;0.80;0.80;;;;;;;5.26;100.00;98071.81;5019206;28;20198;-31
2020/12/27 07:12:10;;;;;;;0.90;0.90;;;;;;;5.35;100.00;98063.06;5018928;28;20210;-31
2020/12/27 07:14:57;;;;;;;1.43;1.33;;;;;;;5.13;100.00;98030.25;5019317;28;20213;-31
2020/12/27 07:17:45;;;;;;;0.83;0.83;;;;;;;5.05;100.00;98036.41;5021763;28;20237;-31
2020/12/27 07:20:32;;;;;;;1.70;1.00;;;;;;;5.23;100.00;98045.41;5021691;28;20272;-30
2020/12/27 07:23:23;;;;;;;1.00;1.00;;;;;;;5.04;100.00;98020.22;5019970;28;20588;-30
2020/12/27 07:26:12;;;;;;;2.03;1.93;;;;;;;5.23;100.00;98027.47;5019388;28;20658;-30
2020/12/27 07:29:02;;;;;;;1.60;1.53;;;;;;;5.14;100.00;98014.00;5019932;28;20222;-31
2020/12/27 07:31:51;;;;;;;1.47;1.37;;;;;;;5.11;100.00;98016.63;5020992;28;20609;-30
2020/12/27 07:34:38;;;;;;;1.20;1.10;;;;;;;5.15;100.00;98002.88;5020112;28;20268;-30
2020/12/27 07:37:28;;;;;;;1.10;1.10;;;;;;;5.27;100.00;97996.59;5019327;28;20281;-30
2020/12/27 07:40:14;;;;;;;1.00;1.00;;;;;;;5.23;100.00;97991.59;5019307;28;20194;-31
2020/12/27 07:43:00;;;;;;;1.03;1.03;;;;;;;5.25;100.00;97974.44;5019062;28;20601;-30
2020/12/27 07:45:47;;;;;;;1.10;1.07;;;;;;;5.19;100.00;97966.06;5018870;28;20202;-30
2020/12/27 07:48:33;;;;;;;1.33;1.30;;;;;;;5.08;100.00;97960.34;5019531;28;20309;-30
2020/12/27 07:51:21;;;;;;;1.57;1.40;;;;;;;5.20;100.00;97947.22;5022977;28;20694;-30
2020/12/27 07:54:07;;;;;;;1.40;1.30;;;;;;;5.20;100.00;97952.34;5021157;28;20241;-30
2020/12/27 07:56:58;;;;;;;1.43;0.90;;;;;;;5.12;100.00;97940.59;5020544;28;20202;-30
2020/12/27 08:00:02;;;;;;;1.47;1.40;;;;;;;5.10;100.00;97938.09;5018802;28;20368;-30
2020/12/27 08:02:50;;;;;;;1.37;1.30;;;;;;;5.16;100.00;97922.56;5018897;28;20202;-30
2020/12/27 08:05:37;;;;;;;1.30;1.20;;;;;;;5.13;100.00;97926.91;5018577;28;20595;-30
2020/12/27 08:08:23;;;;;;;1.10;1.10;;;;;;;5.21;100.00;97914.72;5019022;28;20285;-31
2020/12/27 08:11:18;;;;;;;1.07;1.07;;;;;;;5.27;100.00;97906.06;5019188;28;20349;-30
2020/12/27 08:14:05;;;;;;;1.07;1.07;;;;;;;5.26;100.00;97899.25;5019219;28;20620;-31
2020/12/27 08:16:51;;;;;;;0.90;0.90;;;;;;;5.28;100.00;97887.25;5019513;28;20196;-30
2020/12/27 08:19:39;;;;;;;1.30;1.20;;;;;;;5.25;100.00;97895.84;5023631;28;20202;-30
2020/12/27 08:22:25;;;;;;;1.20;1.20;;;;;;;5.35;100.00;97897.31;5019288;28;20623;-30
2020/12/27 08:25:12;;;;;;;1.30;1.20;;;;;;;5.22;100.00;97885.66;5031539;28;20237;-30
2020/12/27 08:28:00;;;;;;;1.10;1.10;;;;;;;5.35;100.00;97873.38;5039528;28;20220;-30
2020/12/27 08:30:46;;;;;;;0.90;0.90;;;;;;;5.38;100.00;97863.06;5038544;28;20539;-30
2020/12/27 08:33:32;;;;;;;1.10;1.10;;;;;;;5.35;100.00;97847.75;5038610;28;20437;-30
2020/12/27 08:36:24;;;;;;;1.60;1.00;;;;;;;5.44;100.00;97843.19;5038086;28;20250;-30
2020/12/27 08:39:20;;;;;;;1.07;1.07;;;;;;;5.27;100.00;97829.16;5041136;28;20201;-30
2020/12/27 08:42:11;;;;;;;1.37;1.00;;;;;;;5.38;100.00;97824.59;5039445;28;20193;-30
2020/12/27 08:45:01;;;;;;;3.90;0.90;;;;;;;5.31;100.00;97810.28;5041610;28;20272;-30
2020/12/27 08:47:56;;;;;;;0.97;0.90;;;;;;;5.45;100.00;97810.72;5038294;28;20225;-30
2020/12/27 08:50:43;;;;;;;1.90;0.97;;;;;;;5.56;100.00;97801.00;5038824;28;20263;-30
2020/12/27 08:53:40;;;;;;;0.97;0.97;;;;;;;5.44;100.00;97793.66;5038683;28;20241;-30
2020/12/27 08:56:28;;;;;;;0.90;0.90;;;;;;;5.56;100.00;97798.44;5041301;28;20215;-30
2020/12/27 08:59:15;;;;;;;1.67;1.00;;;;;;;5.53;100.00;97783.16;5043134;28;20699;-30
2020/12/27 09:02:11;;;;;;;1.33;1.00;;;;;;;5.51;100.00;97774.66;5042174;28;20197;-30
2020/12/27 09:05:08;;;;;;;1.07;1.07;;;;;;;5.51;100.00;97769.53;5042387;28;20196;-30
2020/12/27 09:07:55;;;;;;;1.60;0.90;;;;;;;5.51;100.00;97756.72;5041780;28;20224;-30
2020/12/27 09:10:42;;;;;;;2.77;1.20;;;;;;;5.67;100.00;97767.34;5041852;28;20506;-30
2020/12/27 09:13:36;;;;;;;0.80;0.80;;;;;;;5.44;100.00;97732.97;5041062;28;20707;-30
2020/12/27 09:16:37;;;;;;;1.10;1.10;;;;;;;5.49;100.00;97733.69;5042676;28;20205;-31
2020/12/27 09:19:24;;;;;;;0.87;0.87;;;;;;;5.42;100.00;97713.38;5041942;28;20197;-31
2020/12/27 09:22:12;;;;;;;1.20;1.10;;;;;;;5.45;100.00;97711.59;5042478;28;20197;-30
2020/12/27 09:25:06;;;;;;;0.90;0.90;;;;;;;5.52;100.00;97696.88;5040881;28;20229;-30
2020/12/27 09:27:54;;;;;;;0.80;0.80;;;;;;;5.51;100.00;97700.31;5042119;28;20767;-30
2020/12/27 09:30:41;;;;;;;1.13;0.93;;;;;;;5.49;100.00;97681.56;5041023;28;20755;-30
2020/12/27 09:33:29;;;;;;;1.40;0.90;;;;;;;5.65;100.00;97684.50;5042217;28;20769;-31
2020/12/27 09:36:17;;;;;;;1.10;1.10;;;;;;;5.46;100.00;97674.81;5041928;28;20550;-30
2020/12/27 09:39:03;;;;;;;1.30;0.93;;;;;;;5.45;100.00;97656.91;5041010;28;20217;-30
2020/12/27 09:41:49;;;;;;;0.87;0.87;;;;;;;5.51;100.00;97649.88;5040447;28;20205;-30
2020/12/27 09:44:36;;;;;;;0.90;0.90;;;;;;;5.63;100.00;97643.50;5046011;28;20209;-30
2020/12/27 09:47:24;;;;;;;0.70;0.70;;;;;;;5.64;100.00;97647.75;5040789;28;20694;-30
2020/12/27 09:50:14;;;;;;;0.80;0.80;;;;;;;5.60;100.00;97648.72;5039816;28;20243;-32
2020/12/27 09:53:07;;;;;;;0.60;0.60;;;;;;;5.64;100.00;97637.50;5040338;28;20264;-31
2020/12/27 09:55:55;;;;;;;0.80;0.80;;;;;;;5.81;100.00;97636.94;5040226;28;20695;-30
2020/12/27 09:58:47;;;;;;;1.10;1.10;;;;;;;5.78;100.00;97645.63;5041094;28;20198;-40
2020/12/27 10:01:34;;;;;;;1.57;0.97;;;;;;;5.81;100.00;97619.00;5042357;28;20267;-30
2020/12/27 10:04:20;;;;;;;1.43;1.03;;;;;;;5.70;100.00;97626.22;5040429;28;20205;-30
2020/12/27 10:07:07;;;;;;;0.70;0.70;;;;;;;5.86;100.00;97632.53;5056270;28;20299;-30
2020/12/27 10:09:53;;;;;;;0.90;0.90;;;;;;;5.76;100.00;97605.50;5051769;28;20201;-30
2020/12/27 10:12:39;;;;;;;1.10;1.00;;;;;;;5.72;100.00;97604.75;5042252;28;20209;-30
2020/12/27 10:15:26;;;;;;;2.00;1.47;;;;;;;5.82;100.00;97590.72;5041624;28;20256;-30
2020/12/27 10:18:16;;;;;;;0.87;0.87;;;;;;;5.82;100.00;97575.34;5041978;28;20204;-30
2020/12/27 10:21:02;;;;;;;6.00;1.40;;;;;;;5.91;100.00;97574.25;5040893;28;20198;-30
2020/12/27 10:23:48;;;;;;;1.53;0.97;;;;;;;5.83;100.00;97563.34;5040584;28;20220;-30
2020/12/27 10:26:34;;;;;;;0.90;0.90;;;;;;;5.75;100.00;97550.81;5056173;28;20240;-30
2020/12/27 10:29:21;;;;;;;0.90;0.90;;;;;;;5.78;100.00;97535.31;5061672;28;20473;-30
2020/12/27 10:32:08;;;;;;;1.40;1.30;;;;;;;5.90;100.00;97530.69;5063198;28;20197;-30
2020/12/27 10:34:55;;;;;;;1.00;1.00;;;;;;;5.90;100.00;97523.00;5060049;28;20200;-31
2020/12/27 10:37:40;;;;;;;0.90;0.90;;;;;;;5.97;100.00;97519.31;5060461;28;20283;-31
2020/12/27 10:40:27;;;;;;;0.80;0.80;;;;;;;5.89;100.00;97504.19;5059780;28;20200;-30
2020/12/27 10:43:13;;;;;;;1.13;1.03;;;;;;;5.94;100.00;97489.47;5061355;28;20208;-30
2020/12/27 10:46:01;;;;;;;1.17;1.17;;;;;;;5.95;100.00;97485.19;5063459;28;20196;-31
2020/12/27 10:48:49;;;;;;;1.10;0.90;;;;;;;5.94;100.00;97478.38;5059799;28;20507;-31
2020/12/27 10:51:38;;;;;;;1.03;0.93;;;;;;;6.03;100.00;97460.91;5062092;28;20204;-31
2020/12/27 10:54:23;;;;;;;3.33;0.93;;;;;;;5.91;100.00;97461.38;5059440;28;20308;-31
2020/12/27 10:57:10;;;;;;;1.03;0.90;;;;;;;6.01;100.00;97467.00;5060629;28;20204;-31
2020/12/27 10:59:56;;;;;;;1.37;1.17;;;;;;;6.00;100.00;97444.78;5060226;28;20216;-31
2020/12/27 11:02:43;;;;;;;0.70;0.70;;;;;;;5.69;100.00;97435.59;5060159;28;20207;-29
2020/12/27 11:05:29;;;;;;;2.27;1.13;;;;;;;5.82;100.00;97428.31;5058892;28;20464;-30
2020/12/27 11:08:20;;;;;;;1.00;1.00;;;;;;;5.75;100.00;97419.19;5064698;28;20219;-30
2020/12/27 11:11:06;;;;;;;1.30;1.20;;;;;;;5.62;100.00;97405.94;5059732;28;20257;-29
2020/12/27 11:13:52;;;;;;;0.93;0.70;;;;;;;5.62;100.00;97399.97;5059185;28;20196;-29
2020/12/27 11:16:38;;;;;;;1.03;0.90;;;;;;;5.78;100.00;97398.56;5059143;28;20200;-29
2020/12/27 11:19:24;;;;;;;0.80;0.80;;;;;;;5.81;100.00;97381.28;5063692;28;20233;-30
2020/12/27 11:22:10;;;;;;;1.00;1.00;;;;;;;5.88;100.00;97374.22;5057872;28;20367;-30
2020/12/27 11:24:57;;;;;;;1.50;1.13;;;;;;;5.93;100.00;97363.84;5058568;28;20270;-29
2020/12/27 11:27:43;;;;;;;0.67;0.53;;;;;;;5.87;100.00;97349.47;5058962;28;20310;-30
2020/12/27 11:30:30;;;;;;;1.00;1.00;;;;;;;6.06;100.00;97332.50;5059390;28;20542;-30
2020/12/27 11:33:16;;;;;;;0.70;0.70;;;;;;;6.08;100.00;97332.47;5062567;28;20705;-30
2020/12/27 11:36:06;;;;;;;1.20;1.17;;;;;;;6.06;100.00;97314.56;5058533;28;20197;-30
2020/12/27 11:38:52;;;;;;;0.93;0.70;;;;;;;6.10;100.00;97328.09;5059555;28;20294;-29
2020/12/27 11:41:40;;;;;;;0.97;0.80;;;;;;;6.16;100.00;97303.06;5060280;28;20212;-30
2020/12/27 11:44:26;;;;;;;0.87;0.87;;;;;;;6.26;100.00;97293.25;5058805;28;20272;-30
2020/12/27 11:47:15;;;;;;;0.57;0.57;;;;;;;6.19;100.00;97276.44;5058747;28;20618;-30
2020/12/27 11:50:01;;;;;;;0.73;0.73;;;;;;;6.17;100.00;97268.78;5058541;28;20208;-30
2020/12/27 11:52:51;;;;;;;0.90;0.90;;;;;;;6.13;100.00;97264.69;5059998;28;20203;-30
2020/12/27 11:55:38;;;;;;;2.50;0.90;;;;;;;6.05;100.00;97237.63;5060058;28;20543;-30
2020/12/27 11:58:25;;;;;;;1.10;1.10;;;;;;;6.02;100.00;97237.75;5059957;28;20611;-30
2020/12/27 12:01:11;;;;;;;1.93;0.93;;;;;;;6.05;100.00;97229.94;5059153;28;20653;-30
2020/12/27 12:03:57;;;;;;;1.07;1.07;;;;;;;6.02;100.00;97223.19;5058955;28;20201;-30
2020/12/27 12:06:47;;;;;;;0.60;0.60;;;;;;;6.17;100.00;97211.50;5058022;28;20566;-30
2020/12/27 12:09:37;;;;;;;0.90;0.90;;;;;;;6.09;100.00;97203.28;5058095;28;20212;-30
2020/12/27 12:12:32;;;;;;;1.53;1.07;;;;;;;6.17;100.00;97203.81;5061185;28;20248;-30
2020/12/27 12:15:23;;;;;;;1.47;0.83;;;;;;;6.25;100.00;97199.16;5059204;28;20483;-30
2020/12/27 12:18:13;;;;;;;0.50;0.50;;;;;;;6.23;100.00;97191.53;5058399;28;20730;-29
2020/12/27 12:21:00;;;;;;;0.90;0.90;;;;;;;6.32;100.00;97187.75;5058844;28;20552;-30
2020/12/27 12:23:47;;;;;;;0.87;0.77;;;;;;;6.23;100.00;97185.56;5057719;28;20266;-30
2020/12/27 12:26:36;;;;;;;0.80;0.80;;;;;;;6.26;100.00;97157.22;5057433;28;20255;-30
2020/12/27 12:29:22;;;;;;;0.80;0.80;;;;;;;6.46;100.00;97164.06;5057480;28;20228;-31
2020/12/27 12:32:10;;;;;;;1.50;0.73;;;;;;;6.32;100.00;97151.81;5066652;28;20598;-30
2020/12/27 12:34:58;;;;;;;0.43;0.43;;;;;;;6.29;100.00;97156.25;5062488;28;20220;-31
2020/12/27 12:37:45;;;;;;;0.50;0.50;;;;;;;6.36;100.00;97150.81;5041749;28;20205;-30
2020/12/27 12:40:34;;;;;;;1.00;1.00;;;;;;;6.40;100.00;97142.06;5042044;28;20268;-31
2020/12/27 12:43:19;;;;;;;0.80;0.80;;;;;;;6.32;100.00;97139.00;5041778;28;20197;-30
2020/12/27 12:46:07;;;;;;;1.83;0.90;;;;;;;6.43;100.00;97129.09;5041924;28;20197;-30
2020/12/27 12:48:54;;;;;;;1.03;0.93;;;;;;;6.20;100.00;97113.84;5043050;28;20331;-29
2020/12/27 12:51:40;;;;;;;0.80;0.80;;;;;;;6.20;100.00;97116.41;5042390;28;20472;-30
2020/12/27 12:54:29;;;;;;;1.47;1.37;;;;;;;6.21;100.00;97108.63;5052886;28;20225;-29
2020/12/27 12:57:18;;;;;;;0.87;0.83;;;;;;;6.29;100.00;97092.91;5041550;28;20615;-30
2020/12/27 13:00:06;;;;;;;1.20;0.97;;;;;;;6.17;100.00;97088.31;5042039;28;20654;-30
2020/12/27 13:02:53;;;;;;;1.13;1.00;;;;;;;6.08;100.00;97081.00;5041491;28;20197;-29
2020/12/27 13:05:40;;;;;;;0.87;0.80;;;;;;;6.01;100.00;97072.72;5041757;28;20253;-30
2020/12/27 13:08:26;;;;;;;1.13;0.90;;;;;;;5.93;100.00;97072.22;5042660;28;20236;-30
2020/12/27 13:11:13;;;;;;;0.83;0.77;;;;;;;5.92;100.00;97057.75;5040555;28;20202;-30